Pagrindinis puslapis
METAR-TAF:

METAR-TAF

Oro uostai :

Konkordas, Naujasis Hampšyras, Jungtinės Amerikos Valstijos

platuma: 43-11-43N, ilguma: 071-30-04W, Aukštis: 105 m

Dabartinis oras

Ataskaita buvo paskelbta 38 minutes, ne 06:51 UTC
Vėjas 13 kt iš Vakarų su gūsio iki 22 kt
Temperatūra -3°C
Drėgmė 42%
Slėgis 1002 hPa
Matomumas: 16.1 km
Giedras dangus

METAR: KCON 280651Z AUTO 26013G22KT 10SM CLR M03/M14 A2960 RMK AO2 SLP028 T10331144

Laikas: 02:29 (07:29 UTC)

Prognozė

Ataskaita buvo paskelbta 1 valandą ir 57 minutes, ne 05:32 UTC
Prognozė galioja nuo 28 metu 06 UTC su 29 metu 06 UTC
Vėjas 12 kt iš Vakarų su gūsio iki 21 kt
Matomumas: 10 km
Su prošvaistėmis ne aukštis 5000 ft
Nuo 28 metu 1500 UTC
Vėjas 17 kt iš Vakarų su gūsio iki 25 kt
Matomumas: 10 km
Išsisklaidę debesys ne aukštis 5000 ft

TAF: KCON 280532Z 2806/2906 26012G21KT P6SM BKN050 FM281500 26017G25KT P6SM SCT050

Orai ataskaitas ir orų prognozės (METAR, TAF).

turimą stotys yra geltonos ir raudonos taškus žemėlapyje.

Perkelti pele per norėdami pamatyti stoties vardą.

Tada spustelėkite, norėdami matyti oro stebėjimo ir prognozės.

Norėdami pakeisti žemėlapį: spustelėkite ant žalios mygtukų su juodo kryžiaus žemyn,; žalią mygtuką su brūkšneliu, jei norite nutolinti; arba žalių rodyklių gretimoms žemėlapius.


METAR-TAF: